createdAt,value
2017-05-20T00:00:59.938Z,13.57
2017-05-20T00:02:09.260Z,13.65
2017-05-20T00:03:19.528Z,13.54
2017-05-20T00:04:29.802Z,13.58
2017-05-20T00:05:39.445Z,13.52
2017-05-20T00:06:49.400Z,13.61
2017-05-20T00:07:59.665Z,13.47
2017-05-20T00:09:09.616Z,13.61
2017-05-20T00:10:19.886Z,13.47
2017-05-20T00:11:29.831Z,13.49
2017-05-20T00:12:39.783Z,13.47
2017-05-20T00:13:50.053Z,13.4
2017-05-20T00:14:59.693Z,13.45
2017-05-20T00:16:09.647Z,13.43
2017-05-20T00:17:19.596Z,13.28
2017-05-20T00:18:29.874Z,13.42
2017-05-20T00:19:39.835Z,13.21
2017-05-20T00:20:49.792Z,13.33
2017-05-20T00:22:02.052Z,13.43
2017-05-20T00:23:12.003Z,13.33
2017-05-20T00:24:21.961Z,13.19
2017-05-20T00:25:31.907Z,13.23
2017-05-20T00:26:41.860Z,13.27
2017-05-20T00:27:51.812Z,13.23
2017-05-20T00:29:01.455Z,13.27
2017-05-20T00:30:11.403Z,13.13
2017-05-20T00:31:21.050Z,13.13
2017-05-20T00:32:31.002Z,13.19
2017-05-20T00:33:41.267Z,13.17
2017-05-20T00:34:51.527Z,13.17
2017-05-20T00:36:01.484Z,13.12
2017-05-20T00:37:11.762Z,13.13
2017-05-20T00:38:21.401Z,13.12
2017-05-20T00:39:31.355Z,13.17
2017-05-20T00:40:40.992Z,13.12
2017-05-20T00:41:51.260Z,13.19
2017-05-20T00:43:00.585Z,13.09
2017-05-20T00:44:10.539Z,13.09
2017-05-20T00:45:20.802Z,13.11
2017-05-20T00:46:31.064Z,13.16
2017-05-20T00:47:41.022Z,13.16
2017-05-20T00:48:51.293Z,13.12
2017-05-20T00:50:00.931Z,13.11
2017-05-20T00:51:10.883Z,13.12
2017-05-20T00:52:20.834Z,13.06
2017-05-20T00:53:31.110Z,13.06
2017-05-20T00:54:41.062Z,13.09
2017-05-20T00:55:51.325Z,13.11
2017-05-20T00:57:01.278Z,13.11
2017-05-20T00:58:10.914Z,13.03
2017-05-20T00:59:20.867Z,13.03
2017-05-20T01:00:31.134Z,13.01
2017-05-20T01:01:41.400Z,12.99
2017-05-20T01:02:51.355Z,12.94
2017-05-20T01:04:01.313Z,12.99
2017-05-20T01:05:11.280Z,13.01
2017-05-20T01:06:21.543Z,12.98
2017-05-20T01:07:31.810Z,13.05
2017-05-20T01:08:42.078Z,12.99
2017-05-20T01:09:52.343Z,13.08
2017-05-20T01:11:02.294Z,13.02
2017-05-20T01:12:11.929Z,13.09
2017-05-20T01:13:22.196Z,13.09
2017-05-20T01:14:32.467Z,13.08
2017-05-20T01:15:41.792Z,13.16
2017-05-20T01:16:52.059Z,13.12
2017-05-20T01:18:01.697Z,13.12
2017-05-20T01:19:11.957Z,13.13
2017-05-20T01:20:21.905Z,13.13
2017-05-20T01:21:31.854Z,13.13
2017-05-20T01:22:42.117Z,13.19
2017-05-20T01:23:52.069Z,13.13
2017-05-20T01:25:01.707Z,13.12
2017-05-20T01:26:11.659Z,13.11
2017-05-20T01:27:21.924Z,13.19
2017-05-20T01:28:31.875Z,13.23
2017-05-20T01:29:42.143Z,13.2
2017-05-20T01:30:52.089Z,13.27
2017-05-20T01:32:02.353Z,13.24
2017-05-20T01:33:11.991Z,13.31
2017-05-20T01:34:22.315Z,13.27
2017-05-20T01:35:32.645Z,13.31
2017-05-20T01:36:42.593Z,13.33
2017-05-20T01:37:52.539Z,13.24
2017-05-20T01:39:02.178Z,13.26
2017-05-20T01:40:12.138Z,13.33
2017-05-20T01:41:22.087Z,13.28
2017-05-20T01:42:31.727Z,13.39
2017-05-20T01:43:43.063Z,13.33
2017-05-20T01:44:52.703Z,13.28
2017-05-20T01:46:02.663Z,13.3
2017-05-20T01:47:12.615Z,13.3
2017-05-20T01:48:22.565Z,13.33
2017-05-20T01:49:32.827Z,13.4
2017-05-20T01:50:42.459Z,13.31
2017-05-20T01:51:52.414Z,13.31
2017-05-20T01:53:02.368Z,13.2
2017-05-20T01:54:12.012Z,13.26
2017-05-20T01:55:22.276Z,13.26
2017-05-20T01:56:32.533Z,13.28
2017-05-20T01:57:42.803Z,13.28
2017-05-20T01:58:53.082Z,13.24
2017-05-20T02:00:03.029Z,13.13
2017-05-20T02:01:12.359Z,13.06
2017-05-20T02:02:22.310Z,13.05
2017-05-20T02:03:32.579Z,13.06
2017-05-20T02:04:42.847Z,12.99
2017-05-20T02:05:53.117Z,12.94
2017-05-20T02:07:02.757Z,12.94
2017-05-20T02:08:12.712Z,13.01
2017-05-20T02:09:22.976Z,12.93
2017-05-20T02:10:33.242Z,12.98
2017-05-20T02:11:43.195Z,12.9
2017-05-20T02:12:53.461Z,12.86
2017-05-20T02:14:02.781Z,12.87
2017-05-20T02:15:12.731Z,12.93
2017-05-20T02:16:22.684Z,12.83
2017-05-20T02:17:32.952Z,12.94
2017-05-20T02:18:43.219Z,12.87
2017-05-20T02:19:53.502Z,12.87
2017-05-20T02:21:03.146Z,12.83
2017-05-20T02:22:13.419Z,12.87
2017-05-20T02:23:23.682Z,12.84
2017-05-20T02:24:33.945Z,12.93
2017-05-20T02:25:43.900Z,12.87
2017-05-20T02:26:53.845Z,12.88
2017-05-20T02:28:04.176Z,12.86
2017-05-20T02:29:14.130Z,12.8
2017-05-20T02:30:24.704Z,12.8
2017-05-20T02:31:34.650Z,12.93
2017-05-20T02:32:44.286Z,12.76
2017-05-20T02:33:54.607Z,12.81
2017-05-20T02:35:04.568Z,12.87
2017-05-20T02:36:14.201Z,12.8
2017-05-20T02:37:24.464Z,12.78
2017-05-20T02:38:34.739Z,12.84
2017-05-20T02:39:44.389Z,12.83
2017-05-20T02:40:54.658Z,12.81
2017-05-20T02:42:04.921Z,12.78
2017-05-20T02:43:14.249Z,12.75
2017-05-20T02:44:24.527Z,12.88
2017-05-20T02:45:34.479Z,12.9
2017-05-20T02:46:44.436Z,12.81
2017-05-20T02:47:54.388Z,12.81
2017-05-20T02:49:04.655Z,12.76
2017-05-20T02:50:14.921Z,12.73
2017-05-20T02:51:24.874Z,12.83
2017-05-20T02:52:35.137Z,12.81
2017-05-20T02:53:45.101Z,12.83
2017-05-20T02:54:55.056Z,12.84
2017-05-20T02:56:05.321Z,12.75
2017-05-20T02:57:15.274Z,12.87
2017-05-20T02:58:25.541Z,12.78
2017-05-20T02:59:35.497Z,12.76
2017-05-20T03:00:45.760Z,12.93
2017-05-20T03:01:56.033Z,12.9
2017-05-20T03:03:05.668Z,12.86
2017-05-20T03:04:15.935Z,12.88
2017-05-20T03:05:26.196Z,12.88
2017-05-20T03:06:36.455Z,12.9
2017-05-20T03:07:46.719Z,12.87
2017-05-20T03:08:56.673Z,12.99
2017-05-20T03:10:06.939Z,12.93
2017-05-20T03:11:16.891Z,12.99
2017-05-20T03:12:27.152Z,12.93
2017-05-20T03:13:37.105Z,13.01
2017-05-20T03:14:47.063Z,13.02
2017-05-20T03:15:57.326Z,12.94
2017-05-20T03:17:07.589Z,12.93
2017-05-20T03:18:17.535Z,13.01
2017-05-20T03:19:27.813Z,12.99
2017-05-20T03:20:37.770Z,13.05
2017-05-20T03:21:48.045Z,12.94
2017-05-20T03:22:57.996Z,12.94
2017-05-20T03:24:07.959Z,12.99
2017-05-20T03:25:17.970Z,12.95
2017-05-20T03:26:28.242Z,12.93
2017-05-20T03:27:38.252Z,12.87
2017-05-20T03:28:48.520Z,12.98
2017-05-20T03:29:58.532Z,12.91
2017-05-20T03:31:08.795Z,12.87
2017-05-20T03:32:19.063Z,12.88
2017-05-20T03:33:29.014Z,12.93
2017-05-20T03:34:39.273Z,12.87
2017-05-20T03:35:48.909Z,12.86
2017-05-20T03:36:58.866Z,12.87
2017-05-20T03:38:09.134Z,12.91
2017-05-20T03:39:19.086Z,12.95
2017-05-20T03:40:29.041Z,12.9
2017-05-20T03:41:39.298Z,12.91
2017-05-20T03:42:48.627Z,12.87
2017-05-20T03:43:58.589Z,12.99
2017-05-20T03:45:08.227Z,13.01
2017-05-20T03:46:18.490Z,12.93
2017-05-20T03:47:28.435Z,12.91
2017-05-20T03:48:38.104Z,12.87
2017-05-20T03:49:47.430Z,12.86
2017-05-20T03:50:57.384Z,12.86
2017-05-20T03:52:07.703Z,12.94
2017-05-20T03:53:17.341Z,12.9
2017-05-20T03:54:27.618Z,12.95
2017-05-20T03:55:37.882Z,12.86
2017-05-20T03:56:47.832Z,12.88
2017-05-20T03:57:57.474Z,12.95
2017-05-20T03:59:07.740Z,12.98
2017-05-20T04:00:17.689Z,12.95
2017-05-20T04:01:27.956Z,12.98
2017-05-20T04:02:37.903Z,12.91
2017-05-20T04:03:47.883Z,12.93
2017-05-20T04:04:57.519Z,12.98
2017-05-20T04:06:07.788Z,12.98
2017-05-20T04:07:17.430Z,12.93
2017-05-20T04:08:27.698Z,12.98
2017-05-20T04:09:37.967Z,13.02
2017-05-20T04:10:47.596Z,13.01
2017-05-20T04:11:57.549Z,12.98
2017-05-20T04:13:07.816Z,12.88
2017-05-20T04:14:17.456Z,12.88
2017-05-20T04:15:27.406Z,12.88
2017-05-20T04:16:37.428Z,12.87
2017-05-20T04:17:47.383Z,12.94
2017-05-20T04:18:57.662Z,12.88
2017-05-20T04:20:07.300Z,12.81
2017-05-20T04:21:17.563Z,12.76
2017-05-20T04:22:27.821Z,12.68
2017-05-20T04:23:37.457Z,12.78
2017-05-20T04:24:47.406Z,12.66
2017-05-20T04:25:57.041Z,12.66
2017-05-20T04:27:06.988Z,12.62
2017-05-20T04:28:16.313Z,12.69
2017-05-20T04:29:26.589Z,12.68
2017-05-20T04:30:36.919Z,12.66
2017-05-20T04:31:46.871Z,12.68
2017-05-20T04:32:57.145Z,12.66
2017-05-20T04:34:06.787Z,12.62
2017-05-20T04:35:16.746Z,12.51
2017-05-20T04:36:27.018Z,12.53
2017-05-20T04:37:37.285Z,12.45
2017-05-20T04:38:47.299Z,12.51
2017-05-20T04:39:57.569Z,12.5
2017-05-20T04:41:07.829Z,12.51
2017-05-20T04:42:17.783Z,12.47
2017-05-20T04:43:28.055Z,12.47
2017-05-20T04:44:38.335Z,12.39
2017-05-20T04:45:48.600Z,12.45
2017-05-20T04:46:57.607Z,12.53
2017-05-20T04:48:07.873Z,12.5
2017-05-20T04:49:17.515Z,12.5
2017-05-20T04:50:27.362Z,12.44
2017-05-20T04:51:37.312Z,12.47
2017-05-20T04:52:47.264Z,12.35
2017-05-20T04:53:57.212Z,12.32
2017-05-20T04:55:07.167Z,12.35
2017-05-20T04:56:17.432Z,12.39
2017-05-20T04:57:27.693Z,12.39
2017-05-20T04:58:37.642Z,12.44
2017-05-20T04:59:47.594Z,12.39
2017-05-20T05:00:57.553Z,12.45
2017-05-20T05:02:07.505Z,12.39
2017-05-20T05:03:17.456Z,12.55
2017-05-20T05:04:27.734Z,12.44
2017-05-20T05:05:37.998Z,12.43
2017-05-20T05:06:47.635Z,12.4
2017-05-20T05:07:57.274Z,12.47
2017-05-20T05:09:07.540Z,12.61
2017-05-20T05:10:17.180Z,12.47
2017-05-20T05:11:27.134Z,12.5
2017-05-20T05:12:37.394Z,12.54
2017-05-20T05:13:47.030Z,12.58
2017-05-20T05:14:57.298Z,12.58
2017-05-20T05:16:07.574Z,12.63
2017-05-20T05:17:17.842Z,12.66
2017-05-20T05:18:27.790Z,12.63
2017-05-20T05:19:38.062Z,12.75
2017-05-20T05:20:47.703Z,12.8
2017-05-20T05:21:57.337Z,12.8
2017-05-20T05:23:07.287Z,12.8
2017-05-20T05:24:17.555Z,12.9
2017-05-20T05:25:27.826Z,12.91
2017-05-20T05:26:37.788Z,12.86
2017-05-20T05:27:48.052Z,12.83
2017-05-20T05:28:58.320Z,12.95
2017-05-20T05:30:08.274Z,12.95
2017-05-20T05:31:18.228Z,13.01
2017-05-20T05:32:28.485Z,12.93
2017-05-20T05:33:37.806Z,12.98
2017-05-20T05:34:47.758Z,13.05
2017-05-20T05:35:58.025Z,13.02
2017-05-20T05:37:07.970Z,13.08
2017-05-20T05:38:17.611Z,13.17
2017-05-20T05:39:27.890Z,13.11
2017-05-20T05:40:38.192Z,13.17
2017-05-20T05:41:48.461Z,13.21
2017-05-20T05:42:58.724Z,13.17
2017-05-20T05:44:08.681Z,13.24
2017-05-20T05:45:18.325Z,13.23
2017-05-20T05:46:28.605Z,13.24
2017-05-20T05:47:38.872Z,13.27
2017-05-20T05:48:48.838Z,13.42
2017-05-20T05:49:59.109Z,13.43
2017-05-20T05:51:09.065Z,13.4
2017-05-20T05:52:19.336Z,13.37
2017-05-20T05:53:29.614Z,13.5
2017-05-20T05:54:39.571Z,13.49
2017-05-20T05:55:49.211Z,13.46
2017-05-20T05:56:59.482Z,13.47
2017-05-20T05:58:08.806Z,13.49
2017-05-20T05:59:18.757Z,13.54
2017-05-20T06:00:28.396Z,13.46
2017-05-20T06:01:38.662Z,13.45
2017-05-20T06:02:48.929Z,13.42
2017-05-20T06:03:58.873Z,13.46
2017-05-20T06:05:08.198Z,13.52
2017-05-20T06:06:18.157Z,13.52
2017-05-20T06:07:28.110Z,13.54
2017-05-20T06:08:38.378Z,13.64
2017-05-20T06:09:48.335Z,13.61
2017-05-20T06:10:57.966Z,13.67
2017-05-20T06:12:07.289Z,13.62
2017-05-20T06:13:17.258Z,13.71
2017-05-20T06:14:27.220Z,13.76
2017-05-20T06:15:37.172Z,13.75
2017-05-20T06:16:47.440Z,13.79
2017-05-20T06:17:57.709Z,13.76
2017-05-20T06:19:07.661Z,13.75
2017-05-20T06:20:17.929Z,13.82
2017-05-20T06:21:27.898Z,13.78
2017-05-20T06:22:38.160Z,13.87
2017-05-20T06:23:48.433Z,13.79
2017-05-20T06:24:58.389Z,13.75
2017-05-20T06:26:08.653Z,13.54
2017-05-20T06:27:18.601Z,13.49
2017-05-20T06:28:28.864Z,13.37
2017-05-20T06:29:39.139Z,13.33
2017-05-20T06:30:48.821Z,13.3
2017-05-20T06:31:58.456Z,13.4
2017-05-20T06:33:08.089Z,13.3
2017-05-20T06:34:18.044Z,13.26
2017-05-20T06:35:27.998Z,13.26
2017-05-20T06:36:37.957Z,13.24
2017-05-20T06:37:48.229Z,13.23
2017-05-20T06:38:58.181Z,13.2
2017-05-20T06:40:08.137Z,13.3
2017-05-20T06:41:18.400Z,13.27
2017-05-20T06:42:28.035Z,13.26
2017-05-20T06:43:37.989Z,13.39
2017-05-20T06:44:48.257Z,13.3
2017-05-20T06:45:58.521Z,13.31
2017-05-20T06:47:08.472Z,13.33
2017-05-20T06:48:18.741Z,13.39
2017-05-20T06:49:29.013Z,13.28
2017-05-20T06:50:39.281Z,13.26
2017-05-20T06:51:49.228Z,13.28
2017-05-20T06:52:58.234Z,13.3
2017-05-20T06:54:07.557Z,13.21
2017-05-20T06:55:17.512Z,13.13
2017-05-20T06:56:27.146Z,13.17
2017-05-20T06:57:37.415Z,13.12
2017-05-20T06:58:47.374Z,13.12
2017-05-20T06:59:57.649Z,13.13
2017-05-20T07:01:07.609Z,13.11
2017-05-20T07:02:17.874Z,13.09
2017-05-20T07:03:28.140Z,13.11
2017-05-20T07:04:38.408Z,12.98
2017-05-20T07:05:48.371Z,13.01
2017-05-20T07:06:58.643Z,13.01
2017-05-20T07:08:08.917Z,12.99
2017-05-20T07:09:18.561Z,12.98
2017-05-20T07:10:28.207Z,12.93
2017-05-20T07:11:38.474Z,12.94
2017-05-20T07:12:48.428Z,12.99
2017-05-20T07:13:58.700Z,12.99
2017-05-20T07:15:08.661Z,13.02
2017-05-20T07:16:18.613Z,12.99
2017-05-20T07:17:28.251Z,13.03
2017-05-20T07:18:38.513Z,13.06
2017-05-20T07:19:48.152Z,13.12
2017-05-20T07:20:58.107Z,13.12
2017-05-20T07:22:07.745Z,13.17
2017-05-20T07:23:17.696Z,13.06
2017-05-20T07:24:27.959Z,13.08
2017-05-20T07:25:38.220Z,13.12
2017-05-20T07:26:48.171Z,13.12
2017-05-20T07:27:58.444Z,13.16
2017-05-20T07:29:08.707Z,13.2
2017-05-20T07:30:18.665Z,13.31
2017-05-20T07:31:28.934Z,13.24
2017-05-20T07:32:39.203Z,13.3
2017-05-20T07:33:48.526Z,13.39
2017-05-20T07:34:58.160Z,13.3
2017-05-20T07:36:07.807Z,13.39
2017-05-20T07:37:17.784Z,13.5
2017-05-20T07:38:28.054Z,13.49
2017-05-20T07:39:38.317Z,13.54
2017-05-20T07:40:48.273Z,13.54
2017-05-20T07:41:57.913Z,13.6
2017-05-20T07:43:08.179Z,13.65
2017-05-20T07:44:18.455Z,13.67
2017-05-20T07:45:28.097Z,13.71
2017-05-20T07:46:38.359Z,13.75
2017-05-20T07:47:48.304Z,13.78
2017-05-20T07:48:57.944Z,13.85
2017-05-20T07:50:07.905Z,13.89
2017-05-20T07:51:18.450Z,13.85
2017-05-20T07:52:28.402Z,13.95
2017-05-20T07:53:38.354Z,14.04
2017-05-20T07:54:48.624Z,14.11
2017-05-20T07:55:58.270Z,14.08
2017-05-20T07:57:08.532Z,13.95
2017-05-20T07:58:18.797Z,14
2017-05-20T07:59:29.059Z,14.04
2017-05-20T08:00:39.015Z,14.11
2017-05-20T08:01:48.973Z,14.12
2017-05-20T08:02:58.925Z,14.11
2017-05-20T08:04:08.565Z,14.08
2017-05-20T08:05:18.837Z,13.95
2017-05-20T08:06:28.790Z,13.98
2017-05-20T08:07:38.747Z,13.87
2017-05-20T08:08:48.701Z,13.68
2017-05-20T08:09:58.658Z,13.62
2017-05-20T08:11:08.617Z,13.6
2017-05-20T08:12:18.881Z,13.65
2017-05-20T08:13:29.148Z,13.65
2017-05-20T08:14:39.410Z,13.64
2017-05-20T08:15:49.360Z,13.7
2017-05-20T08:16:59.322Z,13.79
2017-05-20T08:18:09.275Z,13.83
2017-05-20T08:19:18.908Z,13.8
2017-05-20T08:20:28.858Z,13.79
2017-05-20T08:21:39.127Z,13.61
2017-05-20T08:22:48.768Z,13.65
2017-05-20T08:23:58.723Z,13.57
2017-05-20T08:25:08.674Z,13.5
2017-05-20T08:26:18.316Z,13.54
2017-05-20T08:27:28.273Z,13.6
2017-05-20T08:28:38.543Z,13.64
2017-05-20T08:29:48.183Z,13.73
2017-05-20T08:30:57.829Z,13.85
2017-05-20T08:32:08.099Z,13.78
2017-05-20T08:33:18.046Z,13.79
2017-05-20T08:34:28.325Z,13.8
2017-05-20T08:35:38.603Z,13.61
2017-05-20T08:36:48.865Z,13.68
2017-05-20T08:37:58.819Z,13.68
2017-05-20T08:39:08.782Z,13.71
2017-05-20T08:40:18.538Z,13.7
2017-05-20T08:41:28.486Z,13.76
2017-05-20T08:42:38.430Z,13.8
2017-05-20T08:43:48.698Z,13.79
2017-05-20T08:44:58.655Z,13.79
2017-05-20T08:46:08.618Z,13.75
2017-05-20T08:47:18.571Z,13.67
2017-05-20T08:48:28.521Z,13.49
2017-05-20T08:49:38.792Z,13.57
2017-05-20T08:50:48.750Z,13.49
2017-05-20T08:51:58.700Z,13.52
2017-05-20T08:53:07.712Z,13.52
2017-05-20T08:54:17.676Z,13.57
2017-05-20T08:55:27.318Z,13.62
2017-05-20T08:56:37.275Z,13.54
2017-05-20T08:57:47.221Z,13.55
2017-05-20T08:58:57.484Z,13.7
2017-05-20T09:00:07.446Z,13.64
2017-05-20T09:01:17.087Z,13.73
2017-05-20T09:02:26.727Z,13.57
2017-05-20T09:03:36.689Z,13.62
2017-05-20T09:04:46.646Z,13.55
2017-05-20T09:05:56.597Z,13.62
2017-05-20T09:07:06.852Z,13.52
2017-05-20T09:08:16.810Z,13.58
2017-05-20T09:09:26.774Z,13.54
2017-05-20T09:10:36.736Z,13.64
2017-05-20T09:11:46.999Z,13.62
2017-05-20T09:12:56.950Z,13.61
2017-05-20T09:14:06.913Z,13.6
2017-05-20T09:15:17.186Z,13.64
2017-05-20T09:16:27.136Z,13.61
2017-05-20T09:17:37.403Z,13.67
2017-05-20T09:18:47.667Z,13.62
2017-05-20T09:19:57.956Z,13.68
2017-05-20T09:21:08.227Z,13.79
2017-05-20T09:22:18.497Z,13.83
2017-05-20T09:23:28.501Z,13.79
2017-05-20T09:24:38.760Z,13.86
2017-05-20T09:25:48.393Z,13.8
2017-05-20T09:26:58.343Z,13.79
2017-05-20T09:28:07.982Z,13.89
2017-05-20T09:29:18.256Z,13.79
2017-05-20T09:30:28.529Z,13.93
2017-05-20T09:31:38.799Z,13.91
2017-05-20T09:32:48.800Z,13.94
2017-05-20T09:33:59.076Z,13.85
2017-05-20T09:35:09.338Z,13.85
2017-05-20T09:36:18.978Z,13.85
2017-05-20T09:37:29.252Z,13.89
2017-05-20T09:38:39.523Z,13.87
2017-05-20T09:39:49.160Z,13.93
2017-05-20T09:40:59.427Z,13.89
2017-05-20T09:42:09.382Z,13.95
2017-05-20T09:43:19.341Z,13.95
2017-05-20T09:44:29.613Z,13.95
2017-05-20T09:45:39.878Z,13.95
2017-05-20T09:46:49.513Z,14
2017-05-20T09:47:59.781Z,13.97
2017-05-20T09:49:09.745Z,13.97
2017-05-20T09:50:20.025Z,13.91
2017-05-20T09:51:29.983Z,13.83
2017-05-20T09:52:39.933Z,13.86
2017-05-20T09:53:49.889Z,13.8
2017-05-20T09:54:59.844Z,13.67
2017-05-20T09:56:10.117Z,13.61
2017-05-20T09:57:20.065Z,13.54
2017-05-20T09:58:30.340Z,13.52
2017-05-20T09:59:40.605Z,13.49
2017-05-20T10:00:50.549Z,13.52
2017-05-20T10:02:00.813Z,13.52
2017-05-20T10:03:11.091Z,13.57
2017-05-20T10:04:21.354Z,13.57
2017-05-20T10:05:30.991Z,13.61
2017-05-20T10:06:41.253Z,13.68
2017-05-20T10:07:51.198Z,13.71
2017-05-20T10:09:00.829Z,13.76
2017-05-20T10:10:11.100Z,13.79
2017-05-20T10:11:21.370Z,13.82
2017-05-20T10:12:31.324Z,13.79
2017-05-20T10:13:40.965Z,13.82
2017-05-20T10:14:51.242Z,13.86
2017-05-20T10:16:01.203Z,13.87
2017-05-20T10:17:11.154Z,13.97
2017-05-20T10:18:21.101Z,13.89
2017-05-20T10:19:31.052Z,13.97
2017-05-20T10:20:41.317Z,14.01
2017-05-20T10:21:50.955Z,14.07
2017-05-20T10:23:01.223Z,14.08
2017-05-20T10:24:11.180Z,14.05
2017-05-20T10:25:21.125Z,14.15
2017-05-20T10:26:31.079Z,14.05
2017-05-20T10:27:41.353Z,14.07
2017-05-20T10:28:51.309Z,14.11
2017-05-20T10:30:01.267Z,14.07
2017-05-20T10:31:10.903Z,14.15
2017-05-20T10:32:21.170Z,14.13
2017-05-20T10:33:31.438Z,14.04
2017-05-20T10:34:41.280Z,14.04
2017-05-20T10:35:50.918Z,13.94
2017-05-20T10:37:01.186Z,13.94
2017-05-20T10:38:10.834Z,13.89
2017-05-20T10:39:20.474Z,13.79
2017-05-20T10:40:30.431Z,13.79
2017-05-20T10:41:40.695Z,13.78
2017-05-20T10:42:50.650Z,13.78
2017-05-20T10:44:00.288Z,13.61
2017-05-20T10:45:10.240Z,13.5
2017-05-20T10:46:20.196Z,13.36
2017-05-20T10:47:30.159Z,13.31
2017-05-20T10:48:39.799Z,13.31
2017-05-20T10:49:49.752Z,13.36
2017-05-20T10:50:59.076Z,13.31
2017-05-20T10:52:09.030Z,13.26
2017-05-20T10:53:19.297Z,13.28
2017-05-20T10:54:29.253Z,13.24
2017-05-20T10:55:39.205Z,13.3
2017-05-20T10:56:48.845Z,13.28
2017-05-20T10:57:58.790Z,13.27
2017-05-20T10:59:08.743Z,13.24
2017-05-20T11:00:18.077Z,13.28
2017-05-20T11:01:28.350Z,13.31
2017-05-20T11:02:38.622Z,13.24
2017-05-20T11:03:48.644Z,13.33
2017-05-20T11:04:58.917Z,13.31
2017-05-20T11:06:08.559Z,13.31
2017-05-20T11:07:18.831Z,13.24
2017-05-20T11:08:28.784Z,13.33
2017-05-20T11:09:38.736Z,13.39
2017-05-20T11:10:48.687Z,13.36
2017-05-20T11:11:58.325Z,13.28
2017-05-20T11:13:08.331Z,13.4
2017-05-20T11:14:18.596Z,13.36
2017-05-20T11:15:28.857Z,13.31
2017-05-20T11:16:39.123Z,13.37
2017-05-20T11:17:49.082Z,13.37
2017-05-20T11:18:59.347Z,13.36
2017-05-20T11:20:09.612Z,13.4
2017-05-20T11:21:19.562Z,13.36
2017-05-20T11:22:29.832Z,13.42
2017-05-20T11:23:39.785Z,13.4
2017-05-20T11:24:50.049Z,13.43
2017-05-20T11:26:00.001Z,13.42
2017-05-20T11:27:09.950Z,13.28
2017-05-20T11:28:20.220Z,13.23
2017-05-20T11:29:30.515Z,13.16
2017-05-20T11:30:40.779Z,13.01
2017-05-20T11:31:51.045Z,13.01
2017-05-20T11:33:01.314Z,13.03
2017-05-20T11:34:10.955Z,13.11
2017-05-20T11:35:20.906Z,13.16
2017-05-20T11:36:30.856Z,13.2
2017-05-20T11:37:41.125Z,13.3
2017-05-20T11:38:50.774Z,13.28
2017-05-20T11:40:01.047Z,13.37
2017-05-20T11:41:11.316Z,13.46
2017-05-20T11:42:21.266Z,13.39
2017-05-20T11:43:30.904Z,13.46
2017-05-20T11:44:41.173Z,13.39
2017-05-20T11:45:51.125Z,13.57
2017-05-20T11:47:00.770Z,13.5
2017-05-20T11:48:10.720Z,13.54
2017-05-20T11:49:20.678Z,13.52
2017-05-20T11:50:30.938Z,13.62
2017-05-20T11:51:40.892Z,13.64
2017-05-20T11:52:51.160Z,13.65
2017-05-20T11:54:00.803Z,13.64
2017-05-20T11:55:10.756Z,13.71
2017-05-20T11:56:21.019Z,13.79
2017-05-20T11:57:31.281Z,13.79
2017-05-20T11:58:41.236Z,13.65
2017-05-20T11:59:51.510Z,13.79
2017-05-20T12:01:01.775Z,13.79
2017-05-20T12:02:12.038Z,13.7
2017-05-20T12:03:21.994Z,13.5
2017-05-20T12:04:31.324Z,13.62
2017-05-20T12:05:41.283Z,13.7
2017-05-20T12:06:51.550Z,13.78
2017-05-20T12:08:01.190Z,13.79
2017-05-20T12:09:11.455Z,13.87
2017-05-20T12:10:21.733Z,13.82
2017-05-20T12:11:31.685Z,13.79
2017-05-20T12:12:41.634Z,13.8
2017-05-20T12:13:51.593Z,13.78
2017-05-20T12:15:01.231Z,13.8
2017-05-20T12:16:11.186Z,13.91
2017-05-20T12:17:21.449Z,13.91
2017-05-20T12:18:31.082Z,13.83
2017-05-20T12:19:42.976Z,13.82
2017-05-20T12:20:53.249Z,13.91
2017-05-20T12:22:03.515Z,13.62
2017-05-20T12:23:12.838Z,13.75
2017-05-20T12:24:23.103Z,13.76
2017-05-20T12:25:33.053Z,13.82
2017-05-20T12:26:43.008Z,13.75
2017-05-20T12:27:53.275Z,13.62
2017-05-20T12:29:03.233Z,13.57
2017-05-20T12:30:13.185Z,13.57
2017-05-20T12:31:23.450Z,13.42
2017-05-20T12:32:33.091Z,13.47
2017-05-20T12:33:43.361Z,13.5
2017-05-20T12:34:53.628Z,13.36
2017-05-20T12:36:03.273Z,13.31
2017-05-20T12:37:13.538Z,13.24
2017-05-20T12:38:23.488Z,13.3
2017-05-20T12:39:33.119Z,13.21
2017-05-20T12:40:43.070Z,13.42
2017-05-20T12:41:53.027Z,13.39
2017-05-20T12:43:03.296Z,13.46
2017-05-20T12:44:13.608Z,13.47
2017-05-20T12:45:23.560Z,13.52
2017-05-20T12:46:33.831Z,13.62
2017-05-20T12:47:44.101Z,13.67
2017-05-20T12:48:53.752Z,13.65
2017-05-20T12:50:03.705Z,13.49
2017-05-20T12:51:13.660Z,13.5
2017-05-20T12:52:23.617Z,13.5
2017-05-20T12:53:33.257Z,13.58
2017-05-20T12:54:43.526Z,13.43
2017-05-20T12:55:53.481Z,13.5
2017-05-20T12:57:02.809Z,13.52
2017-05-20T12:58:12.768Z,13.49
2017-05-20T12:59:22.722Z,13.61
2017-05-20T13:00:32.985Z,13.49
2017-05-20T13:01:43.255Z,13.55
2017-05-20T13:02:53.524Z,13.43
2017-05-20T13:04:03.472Z,13.3
2017-05-20T13:05:13.737Z,13.43
2017-05-20T13:06:24.001Z,13.46
2017-05-20T13:07:34.264Z,13.4
2017-05-20T13:08:44.219Z,13.36
2017-05-20T13:09:53.861Z,13.27
2017-05-20T13:11:03.820Z,13.23
2017-05-20T13:12:13.455Z,13.2
2017-05-20T13:13:22.837Z,13.19
2017-05-20T13:14:32.801Z,13.3
2017-05-20T13:15:43.080Z,13.33
2017-05-20T13:16:53.349Z,13.3
2017-05-20T13:18:03.296Z,13.36
2017-05-20T13:19:13.563Z,13.24
2017-05-20T13:20:23.210Z,13.33
2017-05-20T13:21:33.472Z,13.42
2017-05-20T13:22:43.736Z,13.31
2017-05-20T13:23:54.003Z,13.3
2017-05-20T13:25:03.960Z,13.33
2017-05-20T13:26:14.230Z,13.31
2017-05-20T13:27:24.505Z,13.3
2017-05-20T13:28:34.778Z,13.33
2017-05-20T13:29:45.040Z,13.28
2017-05-20T13:30:55.308Z,13.36
2017-05-20T13:32:05.575Z,13.26
2017-05-20T13:33:15.215Z,13.31
2017-05-20T13:34:25.486Z,13.33
2017-05-20T13:35:35.752Z,13.3
2017-05-20T13:36:46.028Z,13.39
2017-05-20T13:37:55.983Z,13.36
2017-05-20T13:39:05.953Z,13.39
2017-05-20T13:40:15.596Z,13.33
2017-05-20T13:41:25.858Z,13.27
2017-05-20T13:42:35.497Z,13.33
2017-05-20T13:43:45.760Z,13.36
2017-05-20T13:44:56.067Z,13.28
2017-05-20T13:46:05.710Z,13.31
2017-05-20T13:47:15.664Z,13.26
2017-05-20T13:48:25.930Z,13.28
2017-05-20T13:49:35.876Z,13.24
2017-05-20T13:50:45.830Z,13.27
2017-05-20T13:51:55.465Z,13.33
2017-05-20T13:53:05.112Z,13.28
2017-05-20T13:54:15.059Z,13.37
2017-05-20T13:55:25.329Z,13.39
2017-05-20T13:56:35.593Z,13.4
2017-05-20T13:57:45.548Z,13.37
2017-05-20T13:58:55.823Z,13.4
2017-05-20T14:00:05.783Z,13.42
2017-05-20T14:01:16.056Z,13.43
2017-05-20T14:02:26.019Z,13.49
2017-05-20T14:03:36.289Z,13.5
2017-05-20T14:04:46.557Z,13.57
2017-05-20T14:05:56.825Z,13.5
2017-05-20T14:07:06.780Z,13.5
2017-05-20T14:08:16.726Z,13.55
2017-05-20T14:09:26.985Z,13.55
2017-05-20T14:10:37.250Z,13.55
2017-05-20T14:11:47.296Z,13.57
2017-05-20T14:12:56.934Z,13.54
2017-05-20T14:14:06.890Z,13.54
2017-05-20T14:15:16.839Z,13.54
2017-05-20T14:16:27.108Z,13.52
2017-05-20T14:17:37.373Z,13.49
2017-05-20T14:18:46.388Z,13.57
2017-05-20T14:19:56.653Z,13.61
2017-05-20T14:21:06.291Z,13.64
2017-05-20T14:22:16.561Z,13.65
2017-05-20T14:23:26.824Z,13.75
2017-05-20T14:24:36.461Z,13.75
2017-05-20T14:25:46.726Z,13.76
2017-05-20T14:26:56.686Z,13.85
2017-05-20T14:28:06.978Z,13.76
2017-05-20T14:29:17.321Z,13.87
2017-05-20T14:30:27.589Z,13.86
2017-05-20T14:31:37.542Z,13.86
2017-05-20T14:32:47.494Z,13.87
2017-05-20T14:33:57.448Z,13.85
2017-05-20T14:35:07.405Z,14.01
2017-05-20T14:36:17.665Z,13.93
2017-05-20T14:37:27.619Z,13.95
2017-05-20T14:38:37.892Z,13.98
2017-05-20T14:39:47.850Z,13.97
2017-05-20T14:40:57.493Z,14.01
2017-05-20T14:42:07.761Z,14.05
2017-05-20T14:43:17.717Z,13.93
2017-05-20T14:44:27.365Z,14.05
2017-05-20T14:45:37.316Z,13.97
2017-05-20T14:46:47.274Z,13.95
2017-05-20T14:47:56.911Z,13.94
2017-05-20T14:49:06.867Z,13.85
2017-05-20T14:50:17.136Z,13.93
2017-05-20T14:51:27.083Z,14
2017-05-20T14:52:37.039Z,13.89
2017-05-20T14:53:46.989Z,13.86
2017-05-20T14:54:56.626Z,13.94
2017-05-20T14:56:06.583Z,13.98
2017-05-20T14:57:15.973Z,14.04
2017-05-20T14:58:25.928Z,14.07
2017-05-20T14:59:35.882Z,14.12
2017-05-20T15:00:46.147Z,14.03
2017-05-20T15:01:56.414Z,14.08
2017-05-20T15:03:05.745Z,14.01
2017-05-20T15:04:16.014Z,14.18
2017-05-20T15:05:25.970Z,14.18